メインページ
METAR-TAF:

METAR-TAF

空港 :

ローマ・フィウミチーノ, イタリア

フィウミチーノ空港

緯度: 41-48N, 経度: 012-14E, 海抜: 2m

現時点の気象観測

当レポートは15分前の04:50(UTC)に作成
東/北東の風 4kt
気温 11°C
湿度 94%
気圧 1021 hPa
視程: 5000m

METAR: LIRF 210450Z 06004KT 5000 BR NSC 11/10 Q1021 TEMPO 0800 BCFG

時間: 07:05 (05:05 UTC)

予報

当レポートは6時間5分前の23:00(UTC)に作成
予報は21日の 00時(UTC)から 22日の 06時(UTC)まで有効
変向風 4kt
視程: 6000m
高度1800ftの雲はほとんどない
21日の 00時(UTC)から 21日の 06時(UTC)まで一時的に
視程: 2000m
21日の 08時(UTC)から 21日の 10時(UTC)まで徐々に
西/南西の風 10kt
21日の 16時(UTC)から 21日の 18時(UTC)まで徐々に
西/南西の風 10kt

TAF: LIRF 202300Z 2100/2206 VRB04KT 6000 FEW018 TEMPO 2100/2106 2000 BR BECMG 2108/2110 25010KT BECMG 2116/2118 25010KT

4,000以上の空港の気象観測と天気予報(METAR報とTAF報)

利用可能な観測所は地図上に黄色い丸と赤い丸で示す。

丸の上にカーソルを重ねると観測所名を参照できる。

次にクリックすると気象観測と天気予報を参照できる。

マップの切り替え:黒色「×」印の緑ボタンをクリックして拡大、「-」印の緑ボタンをクリックして縮小、緑色の三角印をクリックして隣りの地図に切り替え


METAR-TAF: